Palacios, TX (77465)

7:40 AM CDT on August 28, 2015 (GMT -0500)
Palacios Municipal | | Change Station
CLOSE
Current Station
Airport
Location: Palacios,
Elevation: 16 ft
Nearby Weather Stations

Elev 16 ft 28.73 °N, 96.25 °W | Updated 47 minutes ago

Clear
Clear
73 °F
Feels Like 73 °F
N
4
Wind Variable Wind from NNW

Today
High -- | Low -- °F
--% Chance of Precip.
Yesterday
High -- | Low -- °F
Precip. -- in
7:00 AM 7:51 PM
Waxing Gibbous, 98% visible
Pressure 29.97 in
Visibility 10.0 miles
Clouds Clear
Dew Point 71 °F
Humidity 93%
Rainfall 0.00 in
Snow Depth Not available.
UV 0 out of 12
Pollen 6.20 out of 12
Air Quality Not available.
Flu Activity Not available.
METAR KPSX 281153Z AUTO 34003KT 10SM CLR 23/22 A2997 RMK AO2 SLP148 T02280217 10272 20228 53007
Pressure 29.97 in
Visibility 10.0 miles
Clouds Clear
Dew Point 71 °F
Humidity 93%
Rainfall 0.00 in
Snow Depth Not available.
UV 0 out of 12
Pollen 6.20 out of 12
Air Quality Not available.
Flu Activity Not available.
METAR KPSX 281153Z AUTO 34003KT 10SM CLR 23/22 A2997 RMK AO2 SLP148 T02280217 10272 20228 53007

10-Day Weather Forecast

×

Almanac

Astronomy

Aug. 28, 2015 Rise Set
Actual Time
Civil Twilight
Nautical Twilight
Astronomical Twilight
Moon
Length of Visible Light
Length of Day
Tomorrow will be .
, % of the Moon is Illuminated

Today's Extremes

State Highs State Lows

Community

WunderPhotos

Upload Photos

1,850,373 photos uploaded!

WunderBlogs® & News

Nearby

Air Quality

  Air Quality AQ Index Pollutant
Not available.

Snow Depth

Station Depth Elevation

Earthquake Activity

City Distance Mag. Time & Date
Minimum magnitude displayed is 2.5.

Coastal Water Temperatures

Place Temperature

Stations

Nearby Weather Stations

Station Location Temp. Windchill Dew Point Humidity Wind Precip. Elev Updated Type